Time;durP1;ratioP1;P1;durP2;ratioP2;P2;SDS_P1;SDS_P2;PMS_P1;PMS_P2;Temp;Humidity;BMP_temperature;BMP_pressure;BME280_temperature;BME280_humidity;BME280_pressure;Samples;Min_cycle;Max_cycle;Signal;HPM_P1;HPM_P2
2021/07/12 00:00:20;;;;;;;43.40;32.03;;;18.10;99.90;;;;;;5052267;28;20167;-69
2021/07/12 00:02:46;;;;;;;42.00;34.13;;;18.10;99.90;;;;;;5052582;28;20029;-69
2021/07/12 00:05:13;;;;;;;44.83;34.08;;;18.00;99.90;;;;;;5054034;28;20044;-69
2021/07/12 00:07:39;;;;;;;44.70;33.35;;;17.90;99.90;;;;;;5052545;28;20013;-69
2021/07/12 00:10:07;;;;;;;41.90;32.67;;;17.90;99.90;;;;;;5053768;28;20489;-69
2021/07/12 00:12:33;;;;;;;46.85;35.42;;;17.90;99.90;;;;;;5051922;28;20029;-69
2021/07/12 00:14:59;;;;;;;44.42;34.42;;;17.90;99.90;;;;;;5053256;28;20052;-69
2021/07/12 00:17:24;;;;;;;46.40;33.53;;;17.90;99.90;;;;;;5053858;28;20032;-69
2021/07/12 00:19:50;;;;;;;49.53;34.78;;;17.90;99.90;;;;;;5053820;28;20477;-69
2021/07/12 00:22:15;;;;;;;49.83;34.40;;;17.80;99.90;;;;;;5052672;28;20036;-69
2021/07/12 00:24:41;;;;;;;47.50;34.90;;;17.80;99.90;;;;;;5053817;28;20025;-69
2021/07/12 00:27:06;;;;;;;48.05;36.33;;;17.70;99.90;;;;;;5053772;28;20025;-69
2021/07/12 00:29:32;;;;;;;49.40;37.00;;;17.70;99.90;;;;;;5053500;28;20032;-68
2021/07/12 00:31:58;;;;;;;48.40;36.38;;;17.60;99.90;;;;;;5051956;28;20056;-69
2021/07/12 00:34:23;;;;;;;45.20;35.35;;;17.60;99.90;;;;;;5035493;28;20523;-69
2021/07/12 00:36:49;;;;;;;53.80;39.17;;;17.60;99.90;;;;;;5053719;28;20029;-69
2021/07/12 00:39:14;;;;;;;51.88;37.00;;;17.70;99.90;;;;;;5051865;28;20029;-69
2021/07/12 00:41:40;;;;;;;48.55;34.60;;;17.70;99.90;;;;;;5053358;28;20036;-69
2021/07/12 00:44:06;;;;;;;50.40;36.45;;;17.80;99.90;;;;;;5053329;28;20039;-69
2021/07/12 00:46:32;;;;;;;53.35;37.58;;;17.90;99.90;;;;;;5053590;28;20040;-69
2021/07/12 00:48:57;;;;;;;55.75;38.38;;;18.00;99.90;;;;;;5035466;28;20029;-69
2021/07/12 00:51:23;;;;;;;46.47;35.88;;;18.00;99.90;;;;;;5053563;28;20033;-69
2021/07/12 00:53:50;;;;;;;53.72;38.72;;;18.00;99.90;;;;;;5053226;28;20470;-69
2021/07/12 00:56:16;;;;;;;54.28;38.15;;;18.00;99.90;;;;;;5053524;28;20021;-68
2021/07/12 00:58:42;;;;;;;50.03;38.72;;;18.00;99.90;;;;;;5051988;28;20437;-69
2021/07/12 01:01:08;;;;;;;54.05;37.92;;;18.00;99.90;;;;;;5052092;28;20444;-69
2021/07/12 01:03:34;;;;;;;46.42;35.00;;;18.00;99.90;;;;;;5053224;28;20025;-69
2021/07/12 01:06:00;;;;;;;49.25;35.55;;;18.00;99.90;;;;;;5052017;28;20021;-69
2021/07/12 01:08:26;;;;;;;46.20;34.72;;;17.90;99.90;;;;;;5053401;28;20481;-69
2021/07/12 01:11:14;;;;;;;53.08;38.10;;;18.00;99.90;;;;;;5051975;28;20022;-69
2021/07/12 01:13:49;;;;;;;49.15;36.33;;;18.00;99.90;;;;;;5051328;28;20490;-69
2021/07/12 01:16:27;;;;;;;54.05;36.17;;;18.00;99.90;;;;;;5051873;28;20029;-69
2021/07/12 01:19:08;;;;;;;50.17;36.35;;;18.00;99.90;;;;;;5053609;28;20371;-69
2021/07/12 01:22:13;;;;;;;56.28;41.47;;;17.90;99.90;;;;;;5055394;28;20028;-69
2021/07/12 01:25:19;;;;;;;49.75;35.35;;;17.80;99.90;;;;;;5055347;28;20363;-69
2021/07/12 01:28:20;;;;;;;51.67;38.40;;;17.80;99.90;;;;;;5056192;28;20510;-69
2021/07/12 01:31:25;;;;;;;51.55;37.75;;;17.70;99.90;;;;;;5054942;28;20057;-69
2021/07/12 01:34:14;;;;;;;56.15;40.63;;;17.60;99.90;;;;;;5056099;28;20029;-69
2021/07/12 01:36:51;;;;;;;56.30;41.22;;;17.50;99.90;;;;;;5056056;28;20040;-68
2021/07/12 01:39:23;;;;;;;58.20;40.63;;;17.50;99.90;;;;;;5056333;28;20027;-70
2021/07/12 01:42:05;;;;;;;70.00;47.10;;;17.50;99.90;;;;;;5056042;28;20028;-69
2021/07/12 01:45:09;;;;;;;60.47;42.15;;;17.40;99.90;;;;;;5055080;28;20086;-69
2021/07/12 01:51:04;;;;;;;61.83;43.47;;;17.40;99.90;;;;;;5071675;28;20383;-69
2021/07/12 01:53:56;;;;;;;58.40;40.63;;;17.30;99.90;;;;;;5071365;28;20044;-69
2021/07/12 01:57:01;;;;;;;59.95;42.50;;;17.30;99.90;;;;;;5055615;28;20025;-69
2021/07/12 01:59:40;;;;;;;61.33;41.58;;;17.20;99.90;;;;;;5069649;28;20379;-69
2021/07/12 02:02:07;;;;;;;64.70;44.47;;;17.10;99.90;;;;;;5071150;28;20027;-69
2021/07/12 02:04:33;;;;;;;70.10;47.30;;;17.00;99.90;;;;;;5070847;28;20111;-69
2021/07/12 02:06:59;;;;;;;64.50;44.45;;;17.00;99.90;;;;;;5070794;28;20028;-69
2021/07/12 02:09:25;;;;;;;62.78;44.42;;;16.90;99.90;;;;;;5070938;28;20020;-69
2021/07/12 02:11:52;;;;;;;64.63;43.08;;;16.90;99.90;;;;;;5069123;28;20031;-69
2021/07/12 02:14:21;;;;;;;59.08;42.08;;;16.90;99.90;;;;;;5070603;28;20028;-69
2021/07/12 02:16:49;;;;;;;61.83;43.33;;;16.90;99.90;;;;;;5070588;28;20022;-68
2021/07/12 02:19:16;;;;;;;63.38;43.97;;;16.90;99.90;;;;;;5052581;28;20402;-69
2021/07/12 02:21:45;;;;;;;66.43;46.33;;;16.90;99.90;;;;;;5070763;28;20025;-69
2021/07/12 02:24:13;;;;;;;74.47;48.03;;;16.90;99.90;;;;;;5069459;28;20028;-70
2021/07/12 02:26:40;;;;;;;69.70;46.70;;;16.90;99.90;;;;;;5070652;28;20025;-69
2021/07/12 02:29:07;;;;;;;74.88;50.60;;;16.90;99.90;;;;;;5069118;28;20031;-69
2021/07/12 02:31:34;;;;;;;82.70;54.72;;;16.90;99.90;;;;;;5070617;28;20016;-69
2021/07/12 02:34:00;;;;;;;80.88;52.08;;;17.00;99.90;;;;;;5069980;28;20100;-69
2021/07/12 02:36:27;;;;;;;79.53;51.63;;;17.00;99.90;;;;;;5069950;28;20071;-69
2021/07/12 02:38:55;;;;;;;75.30;49.78;;;17.10;99.90;;;;;;5070182;28;20029;-69
2021/07/12 02:41:22;;;;;;;75.72;49.22;;;17.20;99.90;;;;;;5070139;28;20155;-69
2021/07/12 02:43:48;;;;;;;77.35;49.75;;;17.20;99.90;;;;;;5070057;28;20512;-69
2021/07/12 02:46:15;;;;;;;76.40;49.80;;;17.20;99.90;;;;;;5070293;28;20033;-69
2021/07/12 02:48:41;;;;;;;75.82;48.83;;;17.30;99.90;;;;;;5069807;28;20044;-69
2021/07/12 02:51:13;;;;;;;73.07;48.33;;;17.30;99.90;;;;;;5068364;28;20462;-69
2021/07/12 02:53:44;;;;;;;69.15;46.55;;;17.30;99.90;;;;;;5068643;28;20351;-69
2021/07/12 02:56:10;;;;;;;68.18;45.40;;;17.30;99.90;;;;;;5070000;28;20024;-69
2021/07/12 02:58:37;;;;;;;62.70;43.67;;;17.30;99.90;;;;;;5069447;28;20022;-69
2021/07/12 03:01:03;;;;;;;70.60;46.67;;;17.30;99.90;;;;;;5060809;28;20100;-69
2021/07/12 03:03:29;;;;;;;64.20;43.70;;;17.30;99.90;;;;;;5056700;28;20074;-69
2021/07/12 03:06:03;;;;;;;68.57;46.38;;;17.30;99.90;;;;;;5056426;28;20412;-69
2021/07/12 03:08:49;;;;;;;66.78;44.00;;;17.30;99.90;;;;;;5055440;28;20024;-69
2021/07/12 03:11:16;;;;;;;66.57;44.35;;;17.30;99.90;;;;;;5056039;28;20021;-69
2021/07/12 03:13:51;;;;;;;65.13;43.45;;;17.30;99.90;;;;;;5054713;28;20443;-69
2021/07/12 03:16:17;;;;;;;63.58;43.22;;;17.30;99.90;;;;;;5055022;28;20024;-69
2021/07/12 03:18:50;;;;;;;60.78;42.78;;;17.20;99.90;;;;;;5038899;28;20455;-69
2021/07/12 03:21:18;;;;;;;64.10;43.33;;;17.20;99.90;;;;;;5056398;28;20049;-70
2021/07/12 03:23:48;;;;;;;63.28;42.75;;;17.20;99.90;;;;;;5056063;28;20485;-70
2021/07/12 03:26:16;;;;;;;59.38;41.10;;;17.20;99.90;;;;;;5056290;28;20344;-69
2021/07/12 03:28:43;;;;;;;58.20;41.17;;;17.20;99.90;;;;;;5055887;28;20029;-69
2021/07/12 03:31:10;;;;;;;65.53;43.95;;;17.20;99.90;;;;;;5056191;28;20056;-69
2021/07/12 03:33:37;;;;;;;64.45;43.72;;;17.10;99.90;;;;;;5055017;28;20099;-69
2021/07/12 03:36:04;;;;;;;64.03;43.28;;;17.00;99.90;;;;;;5054938;28;20021;-69
2021/07/12 03:38:31;;;;;;;63.47;42.75;;;17.00;99.90;;;;;;5056035;28;20064;-69
2021/07/12 03:40:58;;;;;;;62.67;42.70;;;16.90;99.90;;;;;;5055987;28;20029;-69
2021/07/12 03:43:24;;;;;;;65.47;42.70;;;16.90;99.90;;;;;;5055970;28;20039;-69
2021/07/12 03:45:56;;;;;;;61.70;42.20;;;16.80;99.90;;;;;;5037615;28;20025;-69
2021/07/12 03:48:35;;;;;;;63.05;42.35;;;16.80;99.90;;;;;;5055511;28;20391;-69
2021/07/12 03:51:01;;;;;;;58.50;39.65;;;16.80;99.90;;;;;;5054006;28;20025;-69
2021/07/12 03:53:26;;;;;;;61.20;42.75;;;16.90;99.90;;;;;;5053979;28;20423;-69
2021/07/12 03:55:52;;;;;;;63.00;42.15;;;16.90;99.90;;;;;;5055745;28;20055;-69
2021/07/12 03:58:17;;;;;;;61.13;40.35;;;17.00;99.90;;;;;;5055671;28;20029;-70
2021/07/12 04:00:43;;;;;;;62.78;42.78;;;17.00;99.90;;;;;;5055619;28;20148;-69
2021/07/12 04:03:08;;;;;;;60.53;42.97;;;17.00;99.90;;;;;;5055265;28;20379;-69
2021/07/12 04:05:34;;;;;;;59.38;41.17;;;17.10;99.90;;;;;;5055492;28;20025;-69
2021/07/12 04:07:59;;;;;;;61.72;39.33;;;17.10;99.90;;;;;;5055425;28;20021;-69
2021/07/12 04:10:25;;;;;;;57.47;39.42;;;17.20;99.90;;;;;;5053946;28;20032;-69
2021/07/12 04:12:51;;;;;;;56.28;39.42;;;17.20;99.90;;;;;;5053866;28;20031;-70
2021/07/12 04:15:17;;;;;;;60.95;42.03;;;17.20;99.90;;;;;;5055080;28;20039;-69
2021/07/12 04:17:44;;;;;;;61.33;40.70;;;17.30;99.90;;;;;;5036967;28;20071;-69
2021/07/12 04:20:10;;;;;;;57.38;40.42;;;17.50;99.90;;;;;;5053849;28;20021;-70
2021/07/12 04:22:36;;;;;;;56.13;39.08;;;17.60;99.90;;;;;;5053444;28;20112;-70
2021/07/12 04:25:04;;;;;;;53.25;37.15;;;17.80;99.90;;;;;;5054187;28;20439;-69
2021/07/12 04:27:29;;;;;;;49.30;36.05;;;17.80;99.90;;;;;;5055164;28;20432;-69
2021/07/12 04:29:55;;;;;;;49.83;35.58;;;18.00;99.90;;;;;;5054700;28;20029;-69
2021/07/12 04:32:21;;;;;;;47.38;34.33;;;18.20;99.90;;;;;;5053612;28;20025;-70
2021/07/12 04:34:46;;;;;;;44.88;31.02;;;18.40;99.90;;;;;;5055022;28;20358;-69
2021/07/12 04:37:12;;;;;;;40.75;29.92;;;18.70;99.90;;;;;;5054921;28;20025;-70
2021/07/12 04:39:38;;;;;;;40.05;30.05;;;19.00;99.90;;;;;;5053359;28;20040;-70
2021/07/12 04:42:04;;;;;;;36.40;29.98;;;19.00;99.90;;;;;;5053091;28;20029;-69
2021/07/12 04:44:30;;;;;;;34.30;27.10;;;19.30;99.90;;;;;;5054843;28;20033;-69
2021/07/12 04:46:57;;;;;;;34.75;26.30;;;19.70;99.90;;;;;;5054755;28;20025;-70
2021/07/12 04:49:23;;;;;;;32.50;23.85;;;20.10;99.90;;;;;;5054035;28;20040;-70
2021/07/12 04:51:49;;;;;;;30.70;23.40;;;20.70;99.90;;;;;;5054663;28;20588;-70
2021/07/12 04:54:15;;;;;;;30.02;23.55;;;21.10;99.90;;;;;;5054636;28;20029;-70
2021/07/12 04:56:40;;;;;;;26.90;22.23;;;21.40;99.90;;;;;;5054614;28;20028;-70
2021/07/12 04:59:09;;;;;;;31.25;22.65;;;21.70;99.90;;;;;;5054562;28;20033;-70
2021/07/12 05:01:36;;;;;;;24.92;22.23;;;22.10;99.90;;;;;;5054253;28;20100;-70
2021/07/12 05:04:04;;;;;;;28.77;21.35;;;22.00;99.90;;;;;;5052732;28;20032;-69
2021/07/12 05:06:30;;;;;;;25.92;20.50;;;22.20;99.90;;;;;;5052775;28;20055;-70
2021/07/12 05:08:56;;;;;;;27.00;21.77;;;21.70;99.90;;;;;;5053004;28;20024;-70
2021/07/12 05:11:22;;;;;;;28.27;22.48;;;21.60;99.90;;;;;;5054317;28;20029;-70
2021/07/12 05:13:48;;;;;;;26.63;22.80;;;20.90;99.90;;;;;;5052880;28;20059;-70
2021/07/12 05:16:14;;;;;;;28.75;23.98;;;20.40;99.90;;;;;;5036000;28;20024;-69
2021/07/12 05:18:39;;;;;;;29.10;23.33;;;20.20;99.90;;;;;;5054212;28;20489;-69
2021/07/12 05:21:06;;;;;;;30.90;24.88;;;20.00;99.90;;;;;;5053930;28;20108;-69
2021/07/12 05:23:32;;;;;;;27.95;22.35;;;19.80;99.90;;;;;;5052682;28;20021;-69
2021/07/12 05:25:57;;;;;;;30.83;23.98;;;19.80;99.90;;;;;;5053834;28;20029;-69
2021/07/12 05:28:23;;;;;;;27.80;22.05;;;19.60;99.90;;;;;;5054019;28;20044;-69
2021/07/12 05:30:50;;;;;;;31.13;22.23;;;19.80;99.90;;;;;;5053511;28;20056;-69
2021/07/12 05:33:15;;;;;;;30.60;21.83;;;19.90;99.90;;;;;;5054055;28;20362;-69
2021/07/12 05:35:41;;;;;;;26.42;20.58;;;20.20;99.90;;;;;;5054012;28;20096;-70
2021/07/12 05:38:07;;;;;;;28.77;21.20;;;20.50;99.90;;;;;;5054009;28;20029;-69
2021/07/12 05:40:33;;;;;;;24.17;19.98;;;20.80;99.90;;;;;;5053980;28;20475;-69
2021/07/12 05:42:59;;;;;;;23.00;20.02;;;21.20;99.90;;;;;;5052816;28;20040;-69
2021/07/12 05:45:25;;;;;;;25.67;19.73;;;21.90;99.90;;;;;;5053964;28;20344;-69
2021/07/12 05:47:51;;;;;;;21.00;18.38;;;22.40;99.90;;;;;;5053561;28;20107;-70
2021/07/12 05:50:16;;;;;;;21.15;17.38;;;23.30;99.90;;;;;;5053156;28;20049;-70
2021/07/12 05:52:42;;;;;;;19.45;16.83;;;23.90;99.90;;;;;;5053527;28;20025;-70
2021/07/12 05:55:08;;;;;;;20.45;17.42;;;24.50;99.90;;;;;;5052568;28;20032;-70
2021/07/12 05:57:34;;;;;;;18.00;16.10;;;25.10;99.90;;;;;;5053486;28;20071;-70
2021/07/12 05:59:59;;;;;;;18.08;15.55;;;24.90;99.90;;;;;;5052546;28;20021;-70
2021/07/12 06:02:25;;;;;;;18.23;16.08;;;24.60;99.90;;;;;;5046860;28;20025;-70
2021/07/12 06:04:50;;;;;;;17.27;15.45;;;24.30;99.90;;;;;;5038549;28;20020;-70
2021/07/12 06:07:16;;;;;;;18.33;16.38;;;23.90;99.90;;;;;;5052703;28;20028;-70
2021/07/12 06:09:42;;;;;;;18.52;16.35;;;23.30;99.90;;;;;;5052610;28;20378;-70
2021/07/12 06:12:08;;;;;;;21.42;16.90;;;23.40;99.90;;;;;;5053977;28;20487;-70
2021/07/12 06:14:34;;;;;;;19.95;17.55;;;23.60;99.90;;;;;;5043175;28;20020;-70
2021/07/12 06:16:59;;;;;;;21.67;16.33;;;23.70;99.90;;;;;;5033817;28;20029;-70
2021/07/12 06:19:25;;;;;;;22.98;16.95;;;23.90;99.90;;;;;;5049499;28;20033;-71
2021/07/12 06:21:50;;;;;;;23.33;17.10;;;24.00;99.90;;;;;;5052166;28;20029;-70
2021/07/12 06:24:16;;;;;;;19.27;17.25;;;24.10;99.90;;;;;;5052290;28;20420;-70
2021/07/12 06:26:42;;;;;;;20.30;16.63;;;24.30;99.90;;;;;;5052466;28;20033;-70
2021/07/12 06:29:08;;;;;;;22.20;16.50;;;24.60;99.90;;;;;;5042138;28;20465;-70
2021/07/12 06:31:34;;;;;;;20.85;16.95;;;24.70;99.90;;;;;;5035678;28;20025;-70
2021/07/12 06:33:59;;;;;;;22.15;17.25;;;23.70;99.90;;;;;;5037713;28;20025;-70
2021/07/12 06:36:25;;;;;;;21.08;16.95;;;23.40;99.90;;;;;;5050228;28;20086;-69
2021/07/12 06:38:51;;;;;;;22.42;17.35;;;22.90;99.90;;;;;;5048323;28;20424;-70
2021/07/12 06:41:16;;;;;;;19.73;17.63;;;22.60;99.90;;;;;;5053637;28;20037;-69
2021/07/12 06:43:42;;;;;;;26.00;18.33;;;22.50;99.90;;;;;;5047347;28;20090;-70
2021/07/12 06:46:07;;;;;;;21.13;17.90;;;22.50;99.90;;;;;;5049149;28;20028;-70
2021/07/12 06:48:33;;;;;;;23.00;17.17;;;22.70;99.90;;;;;;5051125;28;20041;-70
2021/07/12 06:50:58;;;;;;;20.98;16.70;;;22.90;99.90;;;;;;5055706;28;20028;-70
2021/07/12 06:53:24;;;;;;;19.80;17.10;;;23.70;99.90;;;;;;5040982;28;20037;-70
2021/07/12 06:55:50;;;;;;;21.90;17.42;;;23.90;99.90;;;;;;5047966;28;20032;-67
2021/07/12 06:58:16;;;;;;;20.90;15.50;;;24.10;99.90;;;;;;5020602;28;20017;-68
2021/07/12 07:00:42;;;;;;;18.75;14.82;;;24.60;99.90;;;;;;5054428;28;20021;-68
2021/07/12 07:03:08;;;;;;;17.65;14.80;;;24.80;99.90;;;;;;5054925;28;20071;-71
2021/07/12 07:05:35;;;;;;;16.33;14.60;;;25.10;99.90;;;;;;5055798;28;20021;-70
2021/07/12 07:08:00;;;;;;;16.65;14.60;;;26.00;99.90;;;;;;5051384;28;20747;-68
2021/07/12 07:10:26;;;;;;;16.13;14.43;;;26.30;99.90;;;;;;5046788;28;20034;-70
2021/07/12 07:12:52;;;;;;;15.80;13.93;;;26.40;99.90;;;;;;5045071;28;20029;-70
2021/07/12 07:15:18;;;;;;;14.80;12.77;;;25.80;99.90;;;;;;5048161;28;20038;-70
2021/07/12 07:17:43;;;;;;;15.32;13.65;;;25.70;99.90;;;;;;5045013;28;20031;-70
2021/07/12 07:20:09;;;;;;;17.17;13.77;;;25.60;99.90;;;;;;5044334;28;20368;-71
2021/07/12 07:22:35;;;;;;;15.88;14.20;;;25.30;99.90;;;;;;5038764;28;20075;-70
2021/07/12 07:25:00;;;;;;;17.38;13.63;;;25.60;99.90;;;;;;5053175;28;20064;-70
2021/07/12 07:27:26;;;;;;;16.85;14.98;;;25.70;99.90;;;;;;5041889;28;20029;-71
2021/07/12 07:29:51;;;;;;;17.02;13.68;;;26.40;99.90;;;;;;5037458;28;20398;-68
2021/07/12 07:32:17;;;;;;;17.08;12.55;;;27.20;99.90;;;;;;5037853;28;20068;-68
2021/07/12 07:34:44;;;;;;;14.23;12.07;;;27.20;99.90;;;;;;5035071;28;20030;-71
2021/07/12 07:37:11;;;;;;;13.63;12.25;;;28.40;99.90;;;;;;5052011;28;20039;-69
2021/07/12 07:39:38;;;;;;;14.48;12.27;;;28.60;99.90;;;;;;5048653;28;20029;-71
2021/07/12 07:42:05;;;;;;;13.25;11.82;;;28.70;99.90;;;;;;5036531;28;20035;-69
2021/07/12 07:44:30;;;;;;;13.75;12.32;;;28.20;99.90;;;;;;5037961;28;20024;-69
2021/07/12 07:46:56;;;;;;;12.55;11.35;;;27.80;99.90;;;;;;5053036;28;20107;-69
2021/07/12 07:49:22;;;;;;;11.27;10.18;;;27.70;99.90;;;;;;5053941;28;20146;-69
2021/07/12 07:51:49;;;;;;;10.93;9.70;;;27.70;99.90;;;;;;5049170;28;20021;-69
2021/07/12 07:54:14;;;;;;;10.80;9.80;;;28.40;99.90;;;;;;5053822;28;20142;-69
2021/07/12 07:56:40;;;;;;;11.68;9.55;;;28.70;99.90;;;;;;5042863;28;20104;-71
2021/07/12 07:59:07;;;;;;;11.63;10.25;;;28.80;99.90;;;;;;5055131;28;20032;-69
2021/07/12 08:01:33;;;;;;;9.80;8.90;;;29.30;99.90;;;;;;5048216;28;20036;-69
2021/07/12 08:03:59;;;;;;;10.82;9.85;;;29.30;99.90;;;;;;5053693;28;20025;-69
2021/07/12 08:06:25;;;;;;;9.85;8.85;;;28.80;99.90;;;;;;5053164;28;20075;-69
2021/07/12 08:08:50;;;;;;;10.57;9.57;;;29.00;99.90;;;;;;5049814;28;20541;-70
2021/07/12 08:11:16;;;;;;;11.93;9.95;;;29.60;99.90;;;;;;5049776;28;20383;-70
2021/07/12 08:13:42;;;;;;;12.88;10.38;;;29.60;99.90;;;;;;5042887;28;20034;-69
2021/07/12 08:16:08;;;;;;;11.27;9.98;;;28.80;99.90;;;;;;5038626;28;20030;-71
2021/07/12 08:18:34;;;;;;;11.77;10.32;;;28.50;99.90;;;;;;5054002;28;20059;-69
2021/07/12 08:21:00;;;;;;;11.32;10.23;;;28.40;99.90;;;;;;5042564;28;20026;-69
2021/07/12 08:23:26;;;;;;;11.07;10.07;;;28.50;99.90;;;;;;5052166;28;20036;-70
2021/07/12 08:25:51;;;;;;;10.30;8.98;;;28.10;99.90;;;;;;5051184;28;20029;-70
2021/07/12 08:28:17;;;;;;;10.88;8.88;;;28.60;99.90;;;;;;5036969;28;20029;-70
2021/07/12 08:30:44;;;;;;;11.98;9.15;;;29.80;99.90;;;;;;5054436;28;20445;-70
2021/07/12 08:33:09;;;;;;;12.05;9.30;;;29.70;99.90;;;;;;5042710;28;20116;-70
2021/07/12 08:35:35;;;;;;;9.45;8.45;;;29.60;99.90;;;;;;5049084;28;20171;-70
2021/07/12 08:38:01;;;;;;;10.73;8.80;;;29.80;99.90;;;;;;5052897;28;20036;-70
2021/07/12 08:40:28;;;;;;;10.48;8.75;;;30.10;99.90;;;;;;5053663;28;20021;-70
2021/07/12 08:42:56;;;;;;;9.48;8.57;;;30.70;99.90;;;;;;5036969;28;20391;-70
2021/07/12 08:45:22;;;;;;;9.98;8.85;;;31.30;99.90;;;;;;5045682;28;20415;-70
2021/07/12 08:47:48;;;;;;;9.88;8.98;;;30.90;99.80;;;;;;5041438;28;20039;-70
2021/07/12 08:50:15;;;;;;;11.23;10.10;;;30.70;99.20;;;;;;5045786;28;20137;-70
2021/07/12 08:52:43;;;;;;;11.73;9.98;;;30.90;98.20;;;;;;5033089;28;20028;-70
2021/07/12 08:55:09;;;;;;;12.82;10.13;;;30.00;99.10;;;;;;5050699;28;20026;-70
2021/07/12 08:57:35;;;;;;;10.73;9.73;;;28.90;99.90;;;;;;5040241;28;20068;-69
2021/07/12 09:00:00;;;;;;;11.98;10.00;;;28.50;99.90;;;;;;5038721;28;20041;-69
2021/07/12 09:02:26;;;;;;;11.30;10.20;;;28.50;99.90;;;;;;5041528;28;20052;-69
2021/07/12 09:04:53;;;;;;;11.48;10.35;;;28.10;99.90;;;;;;5047595;28;20021;-70
2021/07/12 09:07:22;;;;;;;11.60;10.15;;;28.40;99.90;;;;;;5042838;28;20117;-70
2021/07/12 09:09:56;;;;;;;11.13;10.07;;;27.80;99.90;;;;;;5034201;28;20081;-69
2021/07/12 09:12:22;;;;;;;10.80;9.63;;;27.30;99.90;;;;;;5034357;28;20052;-69
2021/07/12 09:15:09;;;;;;;10.93;9.88;;;27.50;99.90;;;;;;5043871;28;20466;-71
2021/07/12 09:17:37;;;;;;;11.52;10.32;;;27.30;99.90;;;;;;5034509;28;20021;-69
2021/07/12 09:20:06;;;;;;;11.73;10.48;;;27.60;99.90;;;;;;5033872;28;20025;-70
2021/07/12 09:22:39;;;;;;;11.07;9.98;;;28.00;99.90;;;;;;5047091;28;20108;-70
2021/07/12 09:25:07;;;;;;;;;;;28.40;99.90;;;;;;5047144;28;20395;-70
2021/07/12 09:27:33;;;;;;;12.82;10.43;;;30.10;99.90;;;;;;5047737;28;20029;-70
2021/07/12 09:30:01;;;;;;;10.63;9.60;;;28.80;99.90;;;;;;5053320;28;20025;-70
2021/07/12 09:32:30;;;;;;;10.82;9.80;;;29.00;99.90;;;;;;5039673;28;20031;-70
2021/07/12 09:35:01;;;;;;;12.65;10.05;;;29.00;99.90;;;;;;5044325;28;20029;-69
2021/07/12 09:37:28;;;;;;;11.95;10.75;;;28.90;99.90;;;;;;5051107;28;20820;-69
2021/07/12 09:39:54;;;;;;;12.50;11.30;;;29.00;99.90;;;;;;5034536;28;20029;-71
2021/07/12 09:42:22;;;;;;;12.23;10.85;;;29.40;99.90;;;;;;5051158;28;20132;-70
2021/07/12 09:44:52;;;;;;;12.20;10.98;;;29.30;99.90;;;;;;5040556;28;20064;-71
2021/07/12 09:47:20;;;;;;;11.98;10.55;;;27.90;99.90;;;;;;5033946;28;20095;-71
2021/07/12 09:49:47;;;;;;;11.27;10.18;;;27.60;99.90;;;;;;5043382;28;20041;-71
2021/07/12 09:52:15;;;;;;;11.50;10.40;;;27.40;99.90;;;;;;5052480;28;20025;-69
2021/07/12 09:54:44;;;;;;;11.38;10.27;;;28.50;99.90;;;;;;5050019;28;20035;-72
2021/07/12 09:57:16;;;;;;;11.00;9.85;;;29.00;99.90;;;;;;5053560;28;20075;-70
2021/07/12 10:00:06;;;;;;;11.73;9.55;;;29.30;99.90;;;;;;5048933;28;20033;-70
2021/07/12 10:02:34;;;;;;;10.30;9.35;;;29.30;99.90;;;;;;5051644;28;20462;-70
2021/07/12 10:05:06;;;;;;;11.65;9.88;;;29.40;99.90;;;;;;5041806;28;20471;-70
2021/07/12 10:07:33;;;;;;;11.98;10.77;;;29.40;99.90;;;;;;5050712;28;20031;-70
2021/07/12 10:10:00;;;;;;;11.15;10.05;;;28.10;99.90;;;;;;5034248;28;20029;-70
2021/07/12 10:12:26;;;;;;;11.32;10.13;;;29.00;99.90;;;;;;5054434;28;20029;-70
2021/07/12 10:14:53;;;;;;;11.45;10.35;;;28.60;99.90;;;;;;5035703;28;20475;-70
2021/07/12 10:17:19;;;;;;;10.85;9.75;;;28.50;99.90;;;;;;5042084;28;20033;-70
2021/07/12 10:19:47;;;;;;;10.80;9.75;;;29.10;99.90;;;;;;5054855;28;20021;-70
2021/07/12 10:22:14;;;;;;;9.48;8.57;;;29.20;99.90;;;;;;5046255;28;20027;-70
2021/07/12 10:24:43;;;;;;;9.32;8.50;;;28.80;99.90;;;;;;5053955;28;20021;-70
2021/07/12 10:27:26;;;;;;;10.05;8.85;;;29.30;99.90;;;;;;5054530;28;20036;-70
2021/07/12 10:29:54;;;;;;;8.32;7.63;;;29.70;99.90;;;;;;5040407;28;20048;-70
2021/07/12 10:32:23;;;;;;;8.32;7.57;;;31.10;98.80;;;;;;5055188;28;20032;-70
2021/07/12 10:34:52;;;;;;;8.57;7.85;;;31.30;96.90;;;;;;5056228;28;20432;-70
2021/07/12 10:37:21;;;;;;;8.68;7.93;;;31.50;96.50;;;;;;5039865;28;20048;-70
2021/07/12 10:40:08;;;;;;;8.65;7.95;;;31.70;96.10;;;;;;5046663;28;20033;-70
2021/07/12 10:42:44;;;;;;;8.90;8.00;;;31.20;96.10;;;;;;5046392;28;20036;-70
2021/07/12 10:45:14;;;;;;;9.35;8.15;;;31.50;96.60;;;;;;5041606;28;20095;-70
2021/07/12 10:47:43;;;;;;;9.45;8.63;;;31.20;96.70;;;;;;5045243;28;20036;-70
2021/07/12 10:50:45;;;;;;;9.00;8.23;;;30.20;96.30;;;;;;5055229;28;20048;-70
2021/07/12 10:56:08;;;;;;;10.65;8.05;;;29.40;99.00;;;;;;5089548;28;20360;-70
2021/07/12 11:01:16;;;;;;;8.95;8.00;;;27.80;99.90;;;;;;5138817;27;20314;-69
2021/07/12 11:06:24;;;;;;;8.68;7.88;;;27.70;99.90;;;;;;5111079;27;20396;-70
2021/07/12 11:08:53;;;;;;;8.90;7.90;;;28.70;98.90;;;;;;5107122;28;20019;-70
2021/07/12 11:11:23;;;;;;;8.50;7.60;;;28.20;99.20;;;;;;5108272;28;20029;-70
2021/07/12 11:14:00;;;;;;;8.13;7.32;;;27.90;99.90;;;;;;5111145;28;20415;-70
2021/07/12 11:16:43;;;;;;;8.85;8.05;;;28.50;99.50;;;;;;5094672;28;20032;-70
2021/07/12 11:19:27;;;;;;;8.50;7.70;;;28.60;99.90;;;;;;5098682;28;20027;-70
2021/07/12 11:21:55;;;;;;;11.10;8.50;;;27.70;99.90;;;;;;5107782;28;20096;-70
2021/07/12 11:24:23;;;;;;;9.00;8.10;;;27.60;99.90;;;;;;5097147;28;20473;-70
2021/07/12 11:26:54;;;;;;;9.02;8.13;;;28.40;99.90;;;;;;5090321;28;20058;-70
2021/07/12 11:29:27;;;;;;;8.95;8.15;;;28.70;99.90;;;;;;5108212;28;20016;-70
2021/07/12 11:31:55;;;;;;;9.32;8.50;;;28.20;99.50;;;;;;5090427;28;20108;-70
2021/07/12 11:34:27;;;;;;;9.13;8.23;;;27.70;99.90;;;;;;5090329;28;20016;-70
2021/07/12 11:37:00;;;;;;;8.07;7.28;;;28.00;99.90;;;;;;5089138;28;20118;-70
2021/07/12 11:39:28;;;;;;;8.20;7.40;;;28.30;99.90;;;;;;5088924;28;20478;-70
2021/07/12 11:41:55;;;;;;;8.20;7.40;;;28.50;99.50;;;;;;5089851;28;20052;-70
2021/07/12 11:44:21;;;;;;;8.13;7.32;;;28.70;99.90;;;;;;5105257;28;20153;-70
2021/07/12 11:46:50;;;;;;;9.80;7.22;;;28.80;99.50;;;;;;5090253;28;20059;-70
2021/07/12 11:49:19;;;;;;;10.10;7.80;;;28.90;99.50;;;;;;5090036;28;20104;-70
2021/07/12 11:51:45;;;;;;;8.90;8.00;;;29.10;99.90;;;;;;5071230;28;20119;-70
2021/07/12 11:54:16;;;;;;;9.18;8.32;;;29.10;99.90;;;;;;5090043;28;20447;-70
2021/07/12 11:57:02;;;;;;;8.32;6.85;;;29.10;99.40;;;;;;5089863;28;20028;-70
2021/07/12 11:59:32;;;;;;;8.77;6.82;;;28.80;98.80;;;;;;5072428;28;20024;-70
2021/07/12 12:02:07;;;;;;;8.95;6.95;;;28.50;98.50;;;;;;5089865;28;20027;-70
2021/07/12 12:04:42;;;;;;;7.38;6.78;;;28.70;98.80;;;;;;5087892;28;20068;-70
2021/07/12 12:07:32;;;;;;;8.48;7.25;;;28.80;99.00;;;;;;5088501;28;20069;-70
2021/07/12 12:10:09;;;;;;;7.50;6.80;;;28.60;97.30;;;;;;5089349;28;20017;-70
2021/07/12 12:12:47;;;;;;;9.70;8.15;;;28.50;98.70;;;;;;5088182;28;20078;-70
2021/07/12 12:15:17;;;;;;;8.30;7.43;;;28.30;99.90;;;;;;5089697;28;20493;-69
2021/07/12 12:17:47;;;;;;;8.45;7.07;;;27.70;99.90;;;;;;5075161;28;20024;-70
2021/07/12 12:20:18;;;;;;;8.52;7.53;;;27.90;99.90;;;;;;5075418;28;20449;-69
2021/07/12 12:22:54;;;;;;;9.15;7.60;;;27.50;99.90;;;;;;5075410;28;20059;-69
2021/07/12 12:25:20;;;;;;;8.38;7.47;;;27.70;99.90;;;;;;5076751;28;20020;-70
2021/07/12 12:27:46;;;;;;;9.50;7.68;;;27.70;99.90;;;;;;5075664;28;20103;-70
2021/07/12 12:30:13;;;;;;;8.32;7.63;;;27.90;99.90;;;;;;5075395;28;20052;-70
2021/07/12 12:32:38;;;;;;;9.00;7.63;;;27.50;99.90;;;;;;5074389;28;20052;-70
2021/07/12 12:35:06;;;;;;;7.60;6.90;;;28.00;99.90;;;;;;5073908;28;20348;-70
2021/07/12 12:37:34;;;;;;;8.90;8.10;;;28.30;99.90;;;;;;5074056;28;20060;-70
2021/07/12 12:40:20;;;;;;;7.82;7.03;;;28.10;99.90;;;;;;5076302;28;20103;-69
2021/07/12 12:42:47;;;;;;;8.05;7.07;;;28.20;99.90;;;;;;5069867;28;20048;-69
2021/07/12 12:45:26;;;;;;;8.60;7.57;;;28.40;99.20;;;;;;5095183;28;20050;-69
2021/07/12 12:47:51;;;;;;;8.02;6.95;;;28.50;99.50;;;;;;5082877;28;20052;-70
2021/07/12 12:50:18;;;;;;;8.25;7.53;;;28.50;99.00;;;;;;5075369;28;20389;-70
2021/07/12 12:52:44;;;;;;;7.93;7.07;;;28.60;98.30;;;;;;5075041;28;20029;-70